Time;durP1;ratioP1;P1;durP2;ratioP2;P2;SDS_P1;SDS_P2;PMS_P1;PMS_P2;Temp;Humidity;BMP_temperature;BMP_pressure;BME280_temperature;BME280_humidity;BME280_pressure;Samples;Min_cycle;Max_cycle;Signal;HPM_P1;HPM_P2
2021/09/07 00:00:40;;;;;;;10.73;8.82;;;20.50;95.50;;;;;;5090886;28;20610;-63
2021/09/07 00:03:05;;;;;;;13.02;8.95;;;20.40;95.70;;;;;;5090327;28;20454;-63
2021/09/07 00:05:31;;;;;;;11.65;9.02;;;20.40;95.70;;;;;;5092193;28;20028;-62
2021/09/07 00:07:57;;;;;;;13.32;9.52;;;20.40;95.60;;;;;;5090306;28;20032;-63
2021/09/07 00:10:23;;;;;;;11.95;8.18;;;20.30;95.70;;;;;;5092556;28;20040;-62
2021/09/07 00:12:49;;;;;;;12.63;9.15;;;20.30;95.80;;;;;;5092265;28;20024;-62
2021/09/07 00:15:16;;;;;;;13.70;9.18;;;20.30;95.90;;;;;;5092249;28;20043;-62
2021/09/07 00:17:42;;;;;;;18.98;10.00;;;20.30;95.90;;;;;;5091766;28;20016;-62
2021/09/07 00:20:08;;;;;;;15.35;8.60;;;20.30;96.00;;;;;;5091451;28;20028;-63
2021/09/07 00:22:36;;;;;;;10.95;9.50;;;20.20;96.00;;;;;;5090713;28;20035;-62
2021/09/07 00:25:03;;;;;;;11.10;9.63;;;20.20;96.10;;;;;;5090923;28;20044;-63
2021/09/07 00:27:28;;;;;;;11.88;9.25;;;20.10;96.10;;;;;;5090568;28;20362;-62
2021/09/07 00:29:54;;;;;;;11.02;9.57;;;20.00;96.20;;;;;;5089568;28;20032;-62
2021/09/07 00:32:20;;;;;;;19.33;10.00;;;20.10;96.20;;;;;;5091379;28;20392;-63
2021/09/07 00:34:45;;;;;;;14.00;9.48;;;20.00;96.20;;;;;;5091881;28;20042;-62
2021/09/07 00:37:11;;;;;;;13.15;9.35;;;20.00;95.90;;;;;;5089732;28;20032;-64
2021/09/07 00:39:37;;;;;;;13.15;9.50;;;20.00;95.70;;;;;;5091582;28;20465;-62
2021/09/07 00:42:03;;;;;;;11.57;9.93;;;19.90;95.90;;;;;;5091561;28;20447;-62
2021/09/07 00:44:28;;;;;;;12.40;8.93;;;19.90;96.00;;;;;;5091792;28;20442;-62
2021/09/07 00:46:57;;;;;;;15.98;9.68;;;19.90;96.10;;;;;;5089601;28;20028;-63
2021/09/07 00:49:24;;;;;;;16.15;9.93;;;20.00;95.90;;;;;;5091417;28;20039;-62
2021/09/07 00:51:51;;;;;;;12.65;9.05;;;19.90;95.80;;;;;;5089834;28;20020;-62
2021/09/07 00:54:20;;;;;;;12.63;8.93;;;20.00;95.90;;;;;;5090631;28;20024;-62
2021/09/07 00:56:46;;;;;;;14.95;9.45;;;19.90;95.90;;;;;;5091378;28;20058;-62
2021/09/07 00:59:13;;;;;;;16.08;8.20;;;19.90;96.00;;;;;;5090752;28;20382;-62
2021/09/07 01:01:39;;;;;;;12.93;9.80;;;19.80;96.00;;;;;;5089977;28;20032;-62
2021/09/07 01:04:04;;;;;;;10.98;9.65;;;19.70;95.90;;;;;;5090876;28;20026;-62
2021/09/07 01:06:30;;;;;;;12.32;9.02;;;19.70;96.10;;;;;;5089988;28;20055;-62
2021/09/07 01:08:57;;;;;;;13.57;9.43;;;19.80;96.00;;;;;;5088969;28;20020;-62
2021/09/07 01:11:23;;;;;;;10.40;8.27;;;19.60;95.90;;;;;;5091559;28;20465;-63
2021/09/07 01:13:49;;;;;;;13.40;9.55;;;19.70;96.00;;;;;;5090096;28;20027;-62
2021/09/07 01:16:15;;;;;;;18.48;9.57;;;19.60;96.00;;;;;;5089059;28;20399;-62
2021/09/07 01:18:41;;;;;;;11.65;9.23;;;19.50;96.00;;;;;;5091206;28;20039;-61
2021/09/07 01:21:11;;;;;;;12.55;9.40;;;19.50;96.10;;;;;;5090764;28;20032;-62
2021/09/07 01:23:37;;;;;;;12.70;9.32;;;19.40;96.00;;;;;;5091236;28;20085;-63
2021/09/07 01:26:04;;;;;;;14.23;10.45;;;19.50;96.20;;;;;;5090427;28;20028;-62
2021/09/07 01:28:31;;;;;;;11.95;9.40;;;19.40;95.90;;;;;;5089958;28;20029;-62
2021/09/07 01:30:57;;;;;;;16.25;10.07;;;19.40;95.80;;;;;;5090699;28;20092;-63
2021/09/07 01:33:23;;;;;;;12.75;10.32;;;19.40;95.80;;;;;;5089735;28;20447;-62
2021/09/07 01:35:48;;;;;;;12.93;9.07;;;19.40;95.70;;;;;;5089796;28;20473;-62
2021/09/07 01:38:14;;;;;;;12.95;9.57;;;19.40;95.80;;;;;;5090568;28;20218;-62
2021/09/07 01:40:39;;;;;;;12.77;9.30;;;19.30;95.60;;;;;;5090759;28;20036;-63
2021/09/07 01:43:05;;;;;;;15.05;10.43;;;19.30;95.70;;;;;;5089182;28;20024;-62
2021/09/07 01:45:31;;;;;;;13.52;10.52;;;19.30;95.60;;;;;;5090964;28;20418;-62
2021/09/07 01:47:56;;;;;;;14.02;9.15;;;19.30;95.80;;;;;;5088841;28;20024;-62
2021/09/07 01:50:22;;;;;;;12.57;9.27;;;19.30;95.90;;;;;;5089408;28;20032;-62
2021/09/07 01:52:48;;;;;;;12.45;8.95;;;19.40;95.90;;;;;;5089488;28;20078;-62
2021/09/07 01:55:13;;;;;;;12.55;9.70;;;19.50;95.70;;;;;;5090422;28;20036;-63
2021/09/07 01:57:39;;;;;;;13.30;9.40;;;19.40;95.90;;;;;;5089560;28;20035;-63
2021/09/07 02:00:06;;;;;;;12.18;8.57;;;19.40;95.70;;;;;;5088963;28;20032;-63
2021/09/07 02:02:32;;;;;;;13.23;9.85;;;19.50;95.60;;;;;;5089143;28;20498;-62
2021/09/07 02:04:57;;;;;;;12.60;9.73;;;19.40;95.60;;;;;;5092401;28;20078;-62
2021/09/07 02:07:23;;;;;;;14.35;9.20;;;19.40;95.90;;;;;;5094571;28;20043;-62
2021/09/07 02:09:51;;;;;;;12.73;8.77;;;19.40;95.70;;;;;;5093134;28;20082;-62
2021/09/07 02:12:16;;;;;;;17.08;10.23;;;19.40;95.70;;;;;;5093936;28;20603;-61
2021/09/07 02:14:42;;;;;;;15.55;10.25;;;19.40;95.70;;;;;;5094442;28;20138;-62
2021/09/07 02:17:07;;;;;;;12.70;9.20;;;19.50;95.70;;;;;;5092500;28;20457;-62
2021/09/07 02:19:33;;;;;;;14.25;9.93;;;19.30;95.60;;;;;;5092547;28;20040;-62
2021/09/07 02:21:59;;;;;;;14.75;9.82;;;19.20;95.70;;;;;;5093599;28;20041;-63
2021/09/07 02:24:24;;;;;;;12.98;9.60;;;19.30;95.90;;;;;;5092682;28;20147;-62
2021/09/07 02:26:50;;;;;;;17.13;9.75;;;19.30;95.90;;;;;;5093907;28;20024;-62
2021/09/07 02:29:15;;;;;;;12.45;9.60;;;19.30;95.80;;;;;;5092286;28;20023;-63
2021/09/07 02:31:41;;;;;;;17.40;10.43;;;19.40;95.70;;;;;;5093806;28;20031;-62
2021/09/07 02:34:07;;;;;;;14.10;10.85;;;19.50;95.70;;;;;;5092080;28;20102;-62
2021/09/07 02:36:32;;;;;;;13.00;9.32;;;19.40;95.50;;;;;;5093941;28;20377;-62
2021/09/07 02:38:58;;;;;;;12.15;9.88;;;19.40;95.60;;;;;;5092350;28;20473;-72
2021/09/07 02:41:24;;;;;;;12.32;9.60;;;19.40;95.60;;;;;;5092744;28;20038;-62
2021/09/07 02:43:49;;;;;;;11.18;9.18;;;19.30;95.80;;;;;;5094000;28;20099;-63
2021/09/07 02:46:16;;;;;;;17.33;9.75;;;19.30;96.00;;;;;;5092871;28;20020;-62
2021/09/07 02:48:42;;;;;;;11.90;9.65;;;19.20;95.90;;;;;;5093968;28;20067;-62
2021/09/07 02:51:07;;;;;;;13.48;10.13;;;19.20;96.20;;;;;;5092761;28;20108;-62
2021/09/07 02:53:33;;;;;;;10.70;9.40;;;19.20;96.20;;;;;;5093848;28;20119;-62
2021/09/07 02:55:59;;;;;;;12.63;9.57;;;19.30;96.30;;;;;;5092283;28;20024;-62
2021/09/07 02:58:24;;;;;;;14.07;10.85;;;19.20;96.40;;;;;;5093885;28;20035;-62
2021/09/07 03:00:50;;;;;;;12.73;9.38;;;19.20;96.50;;;;;;5091929;28;20036;-62
2021/09/07 03:03:15;;;;;;;12.13;9.65;;;19.10;96.60;;;;;;5092823;28;20437;-62
2021/09/07 03:05:41;;;;;;;13.30;10.23;;;19.10;96.60;;;;;;5092124;28;20115;-63
2021/09/07 03:08:07;;;;;;;13.63;10.57;;;19.10;96.70;;;;;;5092490;28;20503;-63
2021/09/07 03:10:33;;;;;;;14.55;9.80;;;19.10;96.70;;;;;;5093047;28;20028;-62
2021/09/07 03:12:59;;;;;;;11.15;9.30;;;19.10;96.80;;;;;;5091806;28;20123;-62
2021/09/07 03:15:25;;;;;;;13.35;10.70;;;19.00;96.80;;;;;;5090384;28;20119;-62
2021/09/07 03:17:51;;;;;;;15.43;10.35;;;18.80;96.90;;;;;;5093052;28;20058;-62
2021/09/07 03:20:17;;;;;;;14.23;9.75;;;18.90;97.00;;;;;;5091018;28;20102;-62
2021/09/07 03:22:43;;;;;;;20.50;10.77;;;18.90;97.10;;;;;;5092753;28;20093;-62
2021/09/07 03:25:09;;;;;;;13.07;9.93;;;19.00;97.20;;;;;;5090524;28;20397;-66
2021/09/07 03:27:35;;;;;;;16.08;10.52;;;19.00;97.10;;;;;;5092657;28;20028;-63
2021/09/07 03:30:01;;;;;;;13.20;10.15;;;18.90;97.10;;;;;;5093068;28;20435;-62
2021/09/07 03:32:26;;;;;;;17.77;10.18;;;18.90;97.20;;;;;;5091074;28;20126;-62
2021/09/07 03:34:52;;;;;;;16.45;10.15;;;18.80;97.10;;;;;;5092785;28;20103;-62
2021/09/07 03:37:18;;;;;;;14.50;10.30;;;18.80;96.90;;;;;;5091819;28;20029;-62
2021/09/07 03:39:43;;;;;;;16.17;11.43;;;18.70;97.20;;;;;;5092381;28;20039;-62
2021/09/07 03:42:09;;;;;;;17.48;9.75;;;18.70;97.30;;;;;;5092240;28;20020;-62
2021/09/07 03:44:35;;;;;;;16.48;10.93;;;18.70;97.50;;;;;;5092380;28;20081;-62
2021/09/07 03:47:00;;;;;;;15.60;11.02;;;18.70;97.40;;;;;;5092602;28;20043;-63
2021/09/07 03:49:26;;;;;;;16.13;9.93;;;18.80;97.40;;;;;;5091938;28;20069;-62
2021/09/07 03:51:52;;;;;;;13.60;10.05;;;18.80;97.50;;;;;;5092492;28;20505;-62
2021/09/07 03:54:17;;;;;;;16.45;11.20;;;18.70;97.50;;;;;;5090259;28;20051;-62
2021/09/07 03:56:43;;;;;;;15.13;10.93;;;18.80;97.40;;;;;;5075471;28;20060;-62
2021/09/07 03:59:08;;;;;;;16.80;11.25;;;18.80;97.30;;;;;;5071352;28;20024;-62
2021/09/07 04:01:34;;;;;;;15.52;10.75;;;18.80;97.20;;;;;;5070912;28;20154;-61
2021/09/07 04:03:59;;;;;;;14.48;10.20;;;18.70;97.20;;;;;;5071820;28;20025;-63
2021/09/07 04:06:25;;;;;;;16.98;10.55;;;18.80;96.70;;;;;;5070031;28;20028;-63
2021/09/07 04:08:51;;;;;;;14.45;9.70;;;18.70;96.80;;;;;;5071757;28;20134;-63
2021/09/07 04:11:16;;;;;;;15.45;9.85;;;18.70;97.00;;;;;;5071134;28;20507;-61
2021/09/07 04:13:42;;;;;;;11.23;9.55;;;18.70;96.90;;;;;;5070346;28;20047;-61
2021/09/07 04:16:08;;;;;;;16.02;9.93;;;18.60;96.80;;;;;;5069767;28;20054;-63
2021/09/07 04:18:33;;;;;;;13.68;9.45;;;18.70;96.80;;;;;;5070318;28;20465;-63
2021/09/07 04:20:59;;;;;;;17.60;10.68;;;18.70;96.60;;;;;;5071675;28;20104;-63
2021/09/07 04:23:25;;;;;;;13.98;10.48;;;18.80;96.30;;;;;;5069744;28;20338;-63
2021/09/07 04:25:50;;;;;;;17.38;11.73;;;18.70;96.40;;;;;;5071727;28;20121;-62
2021/09/07 04:28:16;;;;;;;13.50;10.30;;;18.60;96.60;;;;;;5069593;28;20025;-62
2021/09/07 04:30:41;;;;;;;11.75;9.55;;;18.70;96.80;;;;;;5071636;28;20029;-62
2021/09/07 04:33:07;;;;;;;17.77;10.00;;;18.70;96.80;;;;;;5069484;28;20124;-62
2021/09/07 04:35:33;;;;;;;12.70;10.30;;;18.80;96.70;;;;;;5071238;28;20024;-62
2021/09/07 04:37:58;;;;;;;14.20;10.15;;;18.90;96.50;;;;;;5071306;28;20382;-62
2021/09/07 04:40:24;;;;;;;16.65;10.70;;;18.90;96.60;;;;;;5070833;28;20509;-61
2021/09/07 04:42:50;;;;;;;14.60;10.38;;;18.90;96.40;;;;;;5071456;28;20382;-62
2021/09/07 04:45:15;;;;;;;14.85;9.43;;;18.90;96.30;;;;;;5070584;28;20029;-63
2021/09/07 04:47:41;;;;;;;21.88;10.50;;;18.90;96.20;;;;;;5071016;28;20099;-63
2021/09/07 04:50:07;;;;;;;17.20;10.13;;;18.90;96.00;;;;;;5069252;28;20473;-67
2021/09/07 04:52:33;;;;;;;13.73;10.00;;;19.00;96.00;;;;;;5071149;28;20063;-62
2021/09/07 04:54:58;;;;;;;17.17;11.15;;;19.00;96.00;;;;;;5071198;28;20471;-62
2021/09/07 04:57:24;;;;;;;16.90;10.48;;;19.00;95.90;;;;;;5069098;28;20024;-62
2021/09/07 04:59:50;;;;;;;14.68;10.25;;;18.80;96.00;;;;;;5070933;28;20043;-62
2021/09/07 05:02:15;;;;;;;15.27;10.75;;;18.90;96.00;;;;;;5068727;28;20033;-62
2021/09/07 05:04:41;;;;;;;14.30;10.25;;;18.90;96.10;;;;;;5069660;28;20083;-62
2021/09/07 05:07:07;;;;;;;16.55;10.07;;;18.90;96.00;;;;;;5071259;28;20032;-62
2021/09/07 05:09:32;;;;;;;13.75;10.15;;;18.80;96.10;;;;;;5070947;28;20116;-62
2021/09/07 05:11:58;;;;;;;17.45;10.68;;;18.80;96.10;;;;;;5069382;28;20041;-63
2021/09/07 05:14:24;;;;;;;19.45;10.80;;;18.90;96.10;;;;;;5068666;28;20043;-62
2021/09/07 05:16:49;;;;;;;17.40;11.07;;;18.90;96.40;;;;;;5069454;28;20032;-63
2021/09/07 05:19:16;;;;;;;15.75;11.25;;;18.90;96.00;;;;;;5070343;28;20440;-62
2021/09/07 05:21:43;;;;;;;14.27;10.15;;;18.80;96.10;;;;;;5070589;28;20327;-62
2021/09/07 05:24:09;;;;;;;15.93;11.30;;;18.90;96.10;;;;;;5068608;28;20068;-72
2021/09/07 05:26:35;;;;;;;17.10;11.13;;;18.90;96.10;;;;;;5069403;28;20036;-62
2021/09/07 05:29:01;;;;;;;14.82;11.00;;;18.90;96.10;;;;;;5069536;28;20112;-61
2021/09/07 05:31:27;;;;;;;14.63;11.25;;;18.90;96.00;;;;;;5069954;28;20068;-62
2021/09/07 05:33:52;;;;;;;15.70;11.55;;;19.00;96.10;;;;;;5069190;28;20039;-62
2021/09/07 05:36:19;;;;;;;14.43;10.98;;;19.00;96.30;;;;;;5069783;28;20099;-63
2021/09/07 05:38:45;;;;;;;17.02;11.52;;;18.90;96.20;;;;;;5070985;28;20032;-62
2021/09/07 05:41:11;;;;;;;17.33;10.63;;;19.00;96.30;;;;;;5073607;28;20423;-64
2021/09/07 05:43:37;;;;;;;15.98;10.68;;;18.90;96.10;;;;;;5072945;28;20062;-62
2021/09/07 05:46:02;;;;;;;15.35;10.68;;;18.90;96.20;;;;;;5073843;28;20077;-62
2021/09/07 05:48:28;;;;;;;14.68;10.75;;;19.00;96.20;;;;;;5072254;28;20047;-62
2021/09/07 05:50:54;;;;;;;12.63;9.82;;;19.00;96.40;;;;;;5073931;28;20481;-62
2021/09/07 05:53:20;;;;;;;15.20;11.00;;;19.10;96.30;;;;;;5073639;28;20296;-63
2021/09/07 05:55:45;;;;;;;14.68;10.45;;;19.10;96.40;;;;;;5073610;28;20039;-63
2021/09/07 05:58:11;;;;;;;14.73;9.93;;;19.10;96.10;;;;;;5073430;28;20403;-65
2021/09/07 06:00:36;;;;;;;13.73;10.70;;;19.10;96.30;;;;;;5072556;28;20347;-62
2021/09/07 06:03:08;;;;;;;17.63;11.98;;;19.20;96.10;;;;;;5072595;28;20036;-63
2021/09/07 06:05:35;;;;;;;21.95;11.70;;;19.10;96.30;;;;;;5071909;28;20098;-62
2021/09/07 06:08:01;;;;;;;18.25;12.90;;;19.20;96.20;;;;;;5072511;28;20088;-62
2021/09/07 06:10:27;;;;;;;16.27;11.38;;;19.40;96.10;;;;;;5073172;28;20024;-63
2021/09/07 06:12:52;;;;;;;17.27;10.80;;;19.40;95.90;;;;;;5072368;28;20025;-62
2021/09/07 06:15:18;;;;;;;19.98;14.55;;;19.50;96.10;;;;;;5071452;28;20033;-62
2021/09/07 06:17:43;;;;;;;18.50;13.48;;;19.50;95.80;;;;;;5073653;28;20068;-63
2021/09/07 06:20:10;;;;;;;14.82;11.35;;;19.50;95.70;;;;;;5073604;28;20029;-62
2021/09/07 06:22:36;;;;;;;15.98;11.57;;;19.40;95.50;;;;;;5071593;28;20029;-62
2021/09/07 06:25:02;;;;;;;32.63;12.35;;;19.40;95.90;;;;;;5072024;28;20415;-62
2021/09/07 06:27:30;;;;;;;19.38;10.82;;;19.40;95.90;;;;;;5071452;28;20040;-62
2021/09/07 06:29:56;;;;;;;16.80;11.85;;;19.50;95.90;;;;;;5073610;28;20043;-61
2021/09/07 06:32:21;;;;;;;18.25;11.75;;;19.50;95.80;;;;;;5072600;28;20021;-62
2021/09/07 06:34:47;;;;;;;22.10;12.27;;;19.60;96.00;;;;;;5071887;28;20448;-62
2021/09/07 06:37:13;;;;;;;17.52;10.77;;;19.60;95.90;;;;;;5071340;28;20024;-71
2021/09/07 06:39:38;;;;;;;18.48;11.55;;;19.60;95.90;;;;;;5072162;28;20176;-62
2021/09/07 06:42:07;;;;;;;17.90;12.15;;;19.60;96.00;;;;;;5073639;28;20469;-62
2021/09/07 06:44:33;;;;;;;19.13;12.50;;;19.70;95.90;;;;;;5071447;28;20243;-62
2021/09/07 06:47:00;;;;;;;17.90;11.52;;;19.70;95.80;;;;;;5072804;28;20028;-62
2021/09/07 06:49:26;;;;;;;12.50;8.48;;;19.70;95.80;;;;;;5071121;28;20034;-48
2021/09/07 06:51:52;;;;;;;8.02;5.97;;;19.60;97.80;;;;;;5071702;28;20028;-48
2021/09/07 06:54:17;;;;;;;10.40;7.82;;;20.50;99.90;;;;;;5072458;28;20036;-48
2021/09/07 06:56:43;;;;;;;14.65;7.65;;;21.00;98.20;;;;;;5071279;28;20020;-49
2021/09/07 06:59:08;;;;;;;20.58;8.18;;;21.60;97.60;;;;;;5073203;28;20119;-49
2021/09/07 07:01:34;;;;;;;10.25;7.53;;;21.90;97.40;;;;;;5071910;28;20476;-50
2021/09/07 07:04:00;;;;;;;10.27;8.82;;;22.10;96.30;;;;;;5089722;28;20487;-49
2021/09/07 07:06:26;;;;;;;13.50;8.77;;;22.20;95.60;;;;;;5090616;28;20054;-51
2021/09/07 07:08:52;;;;;;;19.48;9.75;;;22.30;95.40;;;;;;5091623;28;20035;-50
2021/09/07 07:11:18;;;;;;;18.15;11.00;;;22.50;95.00;;;;;;5090430;28;20449;-49
2021/09/07 07:13:43;;;;;;;14.25;10.75;;;22.60;94.30;;;;;;5090422;28;20027;-50
2021/09/07 07:16:09;;;;;;;15.90;10.27;;;22.70;94.00;;;;;;5091667;28;20024;-50
2021/09/07 07:18:35;;;;;;;13.00;9.98;;;22.80;93.80;;;;;;5091692;28;20546;-49
2021/09/07 07:21:01;;;;;;;16.02;10.05;;;22.70;93.50;;;;;;5090996;28;20029;-50
2021/09/07 07:23:27;;;;;;;14.45;9.95;;;22.70;93.40;;;;;;5091004;28;20131;-50
2021/09/07 07:25:52;;;;;;;14.75;10.13;;;22.70;93.30;;;;;;5091494;28;20047;-49
2021/09/07 07:28:18;;;;;;;16.23;10.35;;;22.80;93.10;;;;;;5091646;28;20027;-55
2021/09/07 07:30:43;;;;;;;17.58;10.60;;;22.90;92.90;;;;;;5091262;28;20491;-50
2021/09/07 07:33:09;;;;;;;17.55;10.95;;;22.90;92.10;;;;;;5071961;28;20381;-50
2021/09/07 07:35:36;;;;;;;15.80;11.07;;;22.90;92.70;;;;;;5071072;28;20029;-49
2021/09/07 07:38:02;;;;;;;14.93;10.77;;;23.00;92.30;;;;;;5070664;28;20041;-50
2021/09/07 07:40:27;;;;;;;17.00;11.38;;;23.10;92.40;;;;;;5069403;28;20039;-50
2021/09/07 07:42:53;;;;;;;20.20;10.95;;;23.20;91.90;;;;;;5070120;28;20024;-50
2021/09/07 07:45:19;;;;;;;15.68;10.07;;;23.20;92.10;;;;;;5069727;28;20031;-55
2021/09/07 07:47:44;;;;;;;24.38;10.07;;;23.20;92.20;;;;;;5070280;28;20028;-49
2021/09/07 07:50:11;;;;;;;18.20;9.98;;;23.30;92.20;;;;;;5070447;28;20024;-50
2021/09/07 07:52:37;;;;;;;10.80;9.35;;;23.50;91.90;;;;;;5069461;28;20028;-49
2021/09/07 07:55:03;;;;;;;12.75;10.02;;;23.50;91.80;;;;;;5070180;28;20025;-50
2021/09/07 07:57:28;;;;;;;13.30;9.82;;;23.50;91.70;;;;;;5073745;28;20023;-68
2021/09/07 07:59:54;;;;;;;14.68;9.48;;;23.60;91.50;;;;;;5081306;28;20024;-74
2021/09/07 08:02:20;;;;;;;11.82;9.48;;;23.50;91.60;;;;;;5083540;28;20448;-72
2021/09/07 08:04:45;;;;;;;13.25;9.48;;;23.50;91.80;;;;;;5089964;28;20115;-74
2021/09/07 08:07:11;;;;;;;14.43;10.25;;;23.70;91.90;;;;;;5090860;28;20465;-76
2021/09/07 08:09:37;;;;;;;13.20;10.07;;;23.80;91.20;;;;;;5091171;28;20133;-75
2021/09/07 08:12:03;;;;;;;13.27;10.23;;;24.10;91.40;;;;;;5091251;28;20028;-75
2021/09/07 08:14:28;;;;;;;13.48;9.52;;;24.20;91.30;;;;;;5089493;28;20127;-75
2021/09/07 08:16:54;;;;;;;16.45;10.32;;;24.40;91.10;;;;;;5091532;28;20086;-75
2021/09/07 08:19:20;;;;;;;14.02;10.48;;;24.50;90.70;;;;;;5091764;28;20345;-76
2021/09/07 08:21:46;;;;;;;16.02;9.73;;;24.60;90.80;;;;;;5091425;28;20036;-75
2021/09/07 08:24:11;;;;;;;19.48;11.20;;;24.70;90.70;;;;;;5089674;28;20182;-76
2021/09/07 08:26:38;;;;;;;12.65;9.48;;;24.80;90.70;;;;;;5090939;28;20103;-76
2021/09/07 08:29:04;;;;;;;13.68;9.75;;;25.10;90.50;;;;;;5089572;28;20115;-75
2021/09/07 08:31:30;;;;;;;11.45;8.75;;;25.20;90.30;;;;;;5091040;28;20028;-60
2021/09/07 08:33:55;;;;;;;13.77;10.57;;;25.30;90.30;;;;;;5089263;28;20078;-51
2021/09/07 08:36:21;;;;;;;14.00;10.52;;;25.20;90.00;;;;;;5089743;28;20048;-50
2021/09/07 08:38:47;;;;;;;13.77;10.45;;;25.00;90.00;;;;;;5090200;28;20034;-50
2021/09/07 08:41:19;;;;;;;14.48;10.40;;;24.90;90.50;;;;;;5091001;28;20475;-70
2021/09/07 08:43:52;;;;;;;15.10;11.00;;;24.80;90.60;;;;;;5076993;28;20070;-69
2021/09/07 08:46:19;;;;;;;14.48;9.90;;;24.50;90.50;;;;;;5071026;28;20362;-70
2021/09/07 08:48:46;;;;;;;11.85;9.27;;;24.60;91.00;;;;;;5068783;28;20028;-70
2021/09/07 08:51:15;;;;;;;13.15;10.15;;;24.60;90.90;;;;;;5069404;28;20115;-69
2021/09/07 08:53:40;;;;;;;16.15;10.95;;;24.70;90.60;;;;;;5069819;28;20058;-69
2021/09/07 08:56:08;;;;;;;16.75;10.30;;;24.60;90.50;;;;;;5091161;28;20103;-70
2021/09/07 08:58:34;;;;;;;16.77;11.07;;;24.70;90.70;;;;;;5066561;28;20043;-70
2021/09/07 09:01:36;;;;;;;12.13;10.25;;;24.70;90.70;;;;;;5051190;28;20053;-70
2021/09/07 09:04:01;;;;;;;17.48;10.13;;;24.70;90.80;;;;;;5057938;28;20041;-70
2021/09/07 09:06:28;;;;;;;13.65;9.45;;;24.90;90.80;;;;;;5051072;28;20031;-74
2021/09/07 09:09:04;;;;;;;11.48;9.45;;;25.00;90.70;;;;;;5068437;28;20037;-69
2021/09/07 09:11:48;;;;;;;14.63;10.48;;;25.20;90.20;;;;;;5066651;28;20522;-69
2021/09/07 09:14:32;;;;;;;12.95;9.95;;;25.10;90.10;;;;;;5069352;28;20041;-70
2021/09/07 09:16:58;;;;;;;12.52;9.93;;;25.20;90.30;;;;;;5055835;28;20039;-72
2021/09/07 09:19:25;;;;;;;13.95;10.77;;;25.20;89.50;;;;;;5071944;28;20080;-75
2021/09/07 09:21:51;;;;;;;12.02;10.32;;;25.30;89.50;;;;;;5072927;28;20105;-70
2021/09/07 09:24:18;;;;;;;11.70;9.40;;;25.50;89.10;;;;;;5072404;28;20052;-72
2021/09/07 09:27:04;;;;;;;16.85;10.23;;;25.70;89.30;;;;;;5070687;28;20032;-70
2021/09/07 09:29:34;;;;;;;10.63;9.10;;;25.50;88.80;;;;;;5070991;28;20043;-69
2021/09/07 09:32:03;;;;;;;11.77;9.98;;;25.70;89.40;;;;;;5094822;28;20023;-69
2021/09/07 09:34:30;;;;;;;13.18;9.90;;;26.00;88.80;;;;;;5092311;28;20357;-69
2021/09/07 09:37:03;;;;;;;16.90;11.02;;;25.80;88.80;;;;;;5092735;28;20035;-70
2021/09/07 09:39:34;;;;;;;15.02;9.98;;;25.90;88.60;;;;;;5093929;28;20024;-71
2021/09/07 09:42:00;;;;;;;11.80;8.90;;;25.90;89.50;;;;;;5092770;28;20028;-70
2021/09/07 09:44:27;;;;;;;18.83;9.90;;;26.00;89.40;;;;;;5093918;28;20047;-73
2021/09/07 09:46:53;;;;;;;25.33;10.90;;;26.20;88.80;;;;;;5092963;28;20020;-69
2021/09/07 09:49:21;;;;;;;14.35;9.63;;;26.20;88.60;;;;;;5093712;28;20024;-69
2021/09/07 09:51:48;;;;;;;12.43;9.23;;;26.20;87.20;;;;;;5092327;28;20254;-65
2021/09/07 09:54:16;;;;;;;9.57;8.35;;;26.30;87.40;;;;;;5092880;28;20032;-51
2021/09/07 09:56:42;;;;;;;15.18;10.07;;;26.40;87.40;;;;;;5094645;28;20039;-52
2021/09/07 09:59:08;;;;;;;11.52;8.93;;;26.60;87.40;;;;;;5094622;28;20103;-51
2021/09/07 10:01:36;;;;;;;12.85;9.45;;;26.60;86.60;;;;;;5091519;28;20140;-51
2021/09/07 10:04:03;;;;;;;13.43;10.02;;;26.60;86.70;;;;;;5093971;28;20031;-51
2021/09/07 10:06:30;;;;;;;12.80;9.10;;;26.70;87.10;;;;;;5093092;28;20032;-52
2021/09/07 10:08:56;;;;;;;12.43;9.65;;;26.80;87.30;;;;;;5092254;28;20024;-52
2021/09/07 10:11:24;;;;;;;15.30;10.07;;;26.90;86.70;;;;;;5093769;28;20068;-50
2021/09/07 10:13:54;;;;;;;11.02;9.00;;;27.00;85.90;;;;;;5092013;28;20031;-50
2021/09/07 10:16:42;;;;;;;12.18;9.82;;;27.10;85.60;;;;;;5093712;28;20174;-50
2021/09/07 10:19:10;;;;;;;12.50;9.55;;;27.10;85.90;;;;;;5092242;28;20537;-50
2021/09/07 10:24:20;;;;;;;13.73;9.85;;;27.30;90.60;;;;;;5094072;28;20111;-67
2021/09/07 10:26:47;;;;;;;13.75;9.75;;;27.30;86.70;;;;;;5092782;28;20222;-71
2021/09/07 10:29:15;;;;;;;11.00;9.30;;;27.20;86.30;;;;;;5093323;28;20027;-69
2021/09/07 10:31:55;;;;;;;10.30;9.23;;;27.30;85.90;;;;;;5092522;28;20035;-67
2021/09/07 10:34:25;;;;;;;20.20;9.73;;;27.30;86.40;;;;;;5084982;28;20028;-68
2021/09/07 10:37:04;;;;;;;11.70;9.20;;;27.40;86.00;;;;;;5088730;28;20061;-68
2021/09/07 10:39:41;;;;;;;14.13;8.60;;;27.60;84.80;;;;;;5091063;28;20031;-72
2021/09/07 10:42:09;;;;;;;11.63;9.05;;;27.80;89.50;;;;;;5086823;28;20028;-68
2021/09/07 10:44:37;;;;;;;10.55;9.13;;;27.90;84.10;;;;;;5092098;28;20024;-68
2021/09/07 10:47:07;;;;;;;11.45;8.55;;;28.00;83.30;;;;;;5091463;28;20046;-70
2021/09/07 10:49:33;;;;;;;10.52;9.00;;;27.90;80.20;;;;;;5085605;28;20403;-69
2021/09/07 10:52:05;;;;;;;10.40;8.85;;;28.00;80.20;;;;;;5087462;28;20016;-68
2021/09/07 10:54:32;;;;;;;11.88;8.82;;;28.10;80.80;;;;;;5091934;28;20024;-73
2021/09/07 10:56:59;;;;;;;17.05;9.15;;;28.40;79.90;;;;;;5093566;28;20077;-62
2021/09/07 11:00:09;;;;;;;10.18;8.57;;;28.40;78.70;;;;;;5091662;28;20110;-62
2021/09/07 11:02:49;;;;;;;14.13;9.37;;;28.50;79.90;;;;;;5009733;28;20390;-61
2021/09/07 11:05:23;;;;;;;10.27;8.80;;;28.50;79.00;;;;;;5010575;28;20068;-66
2021/09/07 11:07:51;;;;;;;10.82;8.02;;;28.60;79.60;;;;;;5063351;28;20036;-66
2021/09/07 11:10:16;;;;;;;16.27;8.98;;;28.80;77.30;;;;;;5090142;28;20032;-68
2021/09/07 11:13:14;;;;;;;10.38;8.73;;;28.70;77.90;;;;;;5089840;28;20085;-66
2021/09/07 11:15:43;;;;;;;12.20;8.38;;;28.80;76.40;;;;;;5090734;28;20056;-65
2021/09/07 11:18:21;;;;;;;21.25;10.23;;;28.90;77.70;;;;;;5090944;28;20024;-66
2021/09/07 11:20:49;;;;;;;11.00;8.70;;;28.90;77.20;;;;;;5089879;28;20059;-66
2021/09/07 11:23:18;;;;;;;13.30;8.95;;;28.90;76.80;;;;;;5092344;28;20050;-67
2021/09/07 11:25:50;;;;;;;11.48;9.07;;;29.00;76.70;;;;;;5089558;28;20582;-66
2021/09/07 11:28:17;;;;;;;14.10;8.57;;;29.10;75.80;;;;;;5092355;28;20058;-65
2021/09/07 11:30:50;;;;;;;11.32;8.27;;;29.20;74.40;;;;;;5091477;28;20082;-66
2021/09/07 11:33:18;;;;;;;14.30;8.57;;;29.10;73.20;;;;;;5090515;28;20032;-65
2021/09/07 11:35:49;;;;;;;8.90;7.97;;;29.10;73.80;;;;;;5089601;28;20028;-65
2021/09/07 11:38:25;;;;;;;10.85;8.27;;;29.00;74.60;;;;;;5089744;28;20122;-66
2021/09/07 11:40:54;;;;;;;14.95;8.98;;;28.90;73.70;;;;;;5089906;28;20036;-65
2021/09/07 11:43:33;;;;;;;10.77;8.60;;;28.90;74.30;;;;;;5092035;28;20032;-65
2021/09/07 11:46:14;;;;;;;10.70;8.63;;;28.90;72.60;;;;;;5090741;28;20411;-66
2021/09/07 11:48:47;;;;;;;;;;;28.90;73.60;;;;;;5090683;28;20027;-65
2021/09/07 11:51:17;;;;;;;25.85;9.73;;;28.90;73.60;;;;;;5090772;28;19904;-65
2021/09/07 11:53:44;;;;;;;11.27;9.30;;;29.00;73.30;;;;;;5091567;28;20114;-65
2021/09/07 11:56:21;;;;;;;14.77;9.15;;;29.00;73.20;;;;;;5091885;28;20024;-67
2021/09/07 11:58:47;;;;;;;11.75;7.55;;;29.00;74.00;;;;;;5089540;28;20456;-65
2021/09/07 12:01:15;;;;;;;13.18;8.80;;;29.20;74.30;;;;;;5091566;28;20035;-66
2021/09/07 12:03:53;;;;;;;14.73;7.97;;;29.40;72.90;;;;;;5089908;28;20381;-66
2021/09/07 12:06:44;;;;;;;9.30;7.75;;;29.70;71.70;;;;;;5091598;28;20031;-66
2021/09/07 12:09:13;;;;;;;9.45;8.48;;;30.00;71.40;;;;;;5090484;28;20019;-66
2021/09/07 12:11:40;;;;;;;16.23;9.73;;;30.20;71.00;;;;;;5091220;28;20036;-66
2021/09/07 12:14:07;;;;;;;12.55;8.73;;;30.20;70.40;;;;;;5092011;28;20028;-66
2021/09/07 12:16:55;;;;;;;11.82;8.80;;;30.20;70.70;;;;;;5090250;28;20082;-65
2021/09/07 12:19:24;;;;;;;10.65;8.45;;;30.30;71.20;;;;;;5091781;28;20107;-66
2021/09/07 12:22:13;;;;;;;11.35;8.90;;;30.30;71.50;;;;;;5090912;28;20036;-65
2021/09/07 12:24:42;;;;;;;15.75;8.70;;;30.30;71.00;;;;;;5091123;28;20052;-66
2021/09/07 12:27:27;;;;;;;11.63;8.95;;;30.40;70.80;;;;;;5091362;28;20020;-65
2021/09/07 12:30:10;;;;;;;13.55;8.15;;;30.70;70.70;;;;;;5089449;28;20050;-66
2021/09/07 12:32:49;;;;;;;11.40;7.97;;;30.50;70.10;;;;;;5088711;28;20024;-67
2021/09/07 12:35:42;;;;;;;11.57;8.15;;;30.50;70.50;;;;;;5091451;28;20037;-64
2021/09/07 12:38:13;;;;;;;11.27;8.68;;;30.30;70.70;;;;;;5089818;28;20028;-65